createdAt,value
2019-04-05T00:02:17.475Z,99795.63
2019-04-05T00:04:47.634Z,99782.20
2019-04-05T00:07:17.700Z,99777.06
2019-04-05T00:09:47.528Z,99773.30
2019-04-05T00:12:17.354Z,99785.84
2019-04-05T00:14:47.104Z,99783.70
2019-04-05T00:17:17.059Z,99772.05
2019-04-05T00:19:47.005Z,99771.03
2019-04-05T00:22:17.023Z,99773.78
2019-04-05T00:24:46.929Z,99776.27
2019-04-05T00:27:16.861Z,99770.50
2019-04-05T00:29:46.730Z,99771.63
2019-04-05T00:32:16.680Z,99778.02
2019-04-05T00:34:46.564Z,99781.29
2019-04-05T00:37:16.407Z,99785.83
2019-04-05T00:39:47.480Z,99793.06
2019-04-05T00:42:18.032Z,99801.36
2019-04-05T00:44:49.018Z,99801.95
2019-04-05T00:47:19.518Z,99790.30
2019-04-05T00:49:49.344Z,99790.06
2019-04-05T00:52:19.347Z,99786.56
2019-04-05T00:54:49.316Z,99788.34
2019-04-05T00:57:19.244Z,99786.30
2019-04-05T00:59:49.153Z,99784.29
2019-04-05T01:02:19.371Z,99778.02
2019-04-05T01:04:49.248Z,99780.14
2019-04-05T01:07:19.276Z,99789.53
2019-04-05T01:09:49.408Z,99795.07
2019-04-05T01:12:21.082Z,99800.56
2019-04-05T01:14:51.451Z,99800.27
2019-04-05T01:17:25.111Z,99808.16
2019-04-05T01:19:56.416Z,99801.89
2019-04-05T01:22:28.163Z,99801.41
2019-04-05T01:24:58.674Z,99789.27
2019-04-05T01:27:30.280Z,99779.24
2019-04-05T01:30:00.398Z,99780.09
2019-04-05T01:32:30.537Z,99785.64
2019-04-05T01:35:00.512Z,99789.03
2019-04-05T01:37:30.596Z,99790.00
2019-04-05T01:40:01.332Z,99798.88
2019-04-05T01:42:31.827Z,99806.99
2019-04-05T01:45:01.841Z,99809.38
2019-04-05T01:47:32.723Z,99817.02
2019-04-05T01:50:03.701Z,99819.04
2019-04-05T01:52:34.679Z,99820.08
2019-04-05T01:55:04.883Z,99830.59
2019-04-05T01:57:34.943Z,99831.23
2019-04-05T02:00:06.215Z,99837.50
2019-04-05T02:02:36.287Z,99843.11
2019-04-05T02:05:07.654Z,99832.72
2019-04-05T02:07:37.807Z,99841.27
2019-04-05T02:10:08.825Z,99839.25
2019-04-05T02:12:40.496Z,99848.55
2019-04-05T02:15:12.182Z,99848.02
2019-04-05T02:17:42.187Z,99848.86
2019-04-05T02:20:12.332Z,99852.25
2019-04-05T02:22:42.496Z,99859.39
2019-04-05T02:25:12.408Z,99859.64
2019-04-05T02:27:42.382Z,99855.23
2019-04-05T02:30:12.424Z,99857.38
2019-04-05T02:32:42.372Z,99860.64
2019-04-05T02:35:12.749Z,99864.17
2019-04-05T02:37:42.675Z,99862.91
2019-04-05T02:40:14.021Z,99858.37
2019-04-05T02:42:47.243Z,99861.84
2019-04-05T02:45:19.340Z,99862.07
2019-04-05T02:47:52.910Z,99865.13
2019-04-05T02:50:25.382Z,99867.14
2019-04-05T02:52:58.275Z,99861.13
2019-04-05T02:55:29.806Z,99853.12
2019-04-05T02:58:01.425Z,99846.56
2019-04-05T03:00:32.428Z,99850.92
2019-04-05T03:03:05.858Z,99845.77
2019-04-05T03:05:36.661Z,99846.80
2019-04-05T03:08:08.182Z,99846.30
2019-04-05T03:11:02.667Z,99851.91
2019-04-05T03:13:38.449Z,99847.92
2019-04-05T03:16:18.717Z,99847.03
2019-04-05T03:18:55.644Z,99847.81
2019-04-05T03:21:28.803Z,99841.19
2019-04-05T03:24:01.151Z,99848.83
2019-04-05T03:26:34.033Z,99846.33
2019-04-05T03:29:07.883Z,99848.05
2019-04-05T03:31:38.934Z,99848.02
2019-04-05T03:34:09.050Z,99842.72
2019-04-05T03:36:40.747Z,99846.48
2019-04-05T03:39:10.886Z,99851.13
2019-04-05T03:41:40.832Z,99859.17
2019-04-05T03:44:11.523Z,99865.34
2019-04-05T03:46:55.224Z,99860.03
2019-04-05T03:49:13.645Z,99855.18
2019-04-05T03:51:44.754Z,99852.74
2019-04-05T03:54:14.629Z,99855.52
2019-04-05T03:56:44.850Z,99855.45
2019-04-05T03:59:15.129Z,99860.40
2019-04-05T04:01:45.580Z,99854.43
2019-04-05T04:04:15.652Z,99855.32
2019-04-05T04:06:45.834Z,99856.94
2019-04-05T04:09:15.621Z,99858.25
2019-04-05T04:11:45.957Z,99851.00
2019-04-05T04:14:16.189Z,99854.98
2019-04-05T04:16:46.390Z,99854.75
2019-04-05T04:19:16.527Z,99857.49
2019-04-05T04:21:53.930Z,99861.42
2019-04-05T04:24:23.894Z,99859.88
2019-04-05T04:26:53.843Z,99854.56
2019-04-05T04:29:24.338Z,99863.34
2019-04-05T04:31:54.674Z,99858.45
2019-04-05T04:34:24.738Z,99860.05
2019-04-05T04:36:54.746Z,99860.05
2019-04-05T04:39:24.721Z,99860.05
2019-04-05T04:41:54.940Z,99857.00
2019-04-05T04:44:25.727Z,99863.37
2019-04-05T04:46:55.981Z,99873.75
2019-04-05T04:49:25.908Z,99879.79
2019-04-05T04:51:55.786Z,99881.70
2019-04-05T04:54:26.052Z,99888.86
2019-04-05T04:56:56.169Z,99894.89
2019-04-05T04:59:26.692Z,99889.88
2019-04-05T05:01:57.868Z,99894.00
2019-04-05T05:04:28.307Z,99899.90
2019-04-05T05:06:58.386Z,99909.70
2019-04-05T05:09:28.604Z,99916.36
2019-04-05T05:11:58.673Z,99917.25
2019-04-05T05:14:28.955Z,99914.74
2019-04-05T05:16:59.177Z,99912.73
2019-04-05T05:19:29.682Z,99917.69
2019-04-05T05:21:59.819Z,99916.56
2019-04-05T05:24:30.168Z,99919.30
2019-04-05T05:27:00.387Z,99920.55
2019-04-05T05:29:30.777Z,99928.20
2019-04-05T05:32:00.739Z,99932.42
2019-04-05T05:34:30.570Z,99927.02
2019-04-05T05:37:00.951Z,99930.41
2019-04-05T05:39:31.016Z,99940.55
2019-04-05T05:42:01.013Z,99941.44
2019-04-05T05:44:31.031Z,99944.44
2019-04-05T05:47:00.901Z,99949.55
2019-04-05T05:49:30.666Z,99952.28
2019-04-05T05:52:01.102Z,99955.16
2019-04-05T05:54:30.887Z,99957.33
2019-04-05T05:57:00.676Z,99953.44
2019-04-05T05:59:30.916Z,99950.57
2019-04-05T06:02:01.840Z,99950.57
2019-04-05T06:04:31.755Z,99947.44
2019-04-05T06:07:02.217Z,99943.68
2019-04-05T06:09:32.090Z,99946.84
2019-04-05T06:12:02.315Z,99947.64
2019-04-05T06:14:32.219Z,99950.91
2019-04-05T06:17:02.074Z,99953.91
2019-04-05T06:19:32.589Z,99952.16
2019-04-05T06:22:02.711Z,99951.77
2019-04-05T06:24:32.558Z,99945.13
2019-04-05T06:27:02.493Z,99953.91
2019-04-05T06:29:32.329Z,99955.98
2019-04-05T06:32:02.188Z,99948.20
2019-04-05T06:34:32.065Z,99949.31
2019-04-05T06:37:02.063Z,99946.95
2019-04-05T06:39:32.926Z,99949.58
2019-04-05T06:42:02.710Z,99951.59
2019-04-05T06:44:32.651Z,99957.10
2019-04-05T06:47:02.769Z,99955.13
2019-04-05T06:49:33.501Z,99955.48
2019-04-05T06:52:04.496Z,99951.16
2019-04-05T06:54:34.636Z,99957.56
2019-04-05T06:57:04.573Z,99956.31
2019-04-05T06:59:35.401Z,99957.30
2019-04-05T07:02:05.386Z,99958.33
2019-04-05T07:04:35.658Z,99957.33
2019-04-05T07:07:05.657Z,99962.45
2019-04-05T07:09:35.399Z,99963.93
2019-04-05T07:12:05.728Z,99958.78
2019-04-05T07:14:35.495Z,99965.41
2019-04-05T07:17:06.085Z,99967.78
2019-04-05T07:19:35.935Z,99975.83
2019-04-05T07:22:05.897Z,99976.56
2019-04-05T07:24:35.644Z,99970.10
2019-04-05T07:27:05.460Z,99972.38
2019-04-05T07:29:35.232Z,99980.69
2019-04-05T07:32:05.413Z,99980.77
2019-04-05T07:34:35.228Z,99981.25
2019-04-05T07:37:05.562Z,99981.75
2019-04-05T07:39:35.456Z,99977.43
2019-04-05T07:42:05.762Z,99984.59
2019-04-05T07:44:35.730Z,99979.88
2019-04-05T07:47:05.633Z,99982.22
2019-04-05T07:49:35.499Z,99983.80
2019-04-05T07:52:05.397Z,99984.83
2019-04-05T07:54:35.258Z,99990.37
2019-04-05T07:57:05.170Z,99987.10
2019-04-05T07:59:34.952Z,99984.13
2019-04-05T08:02:04.874Z,99984.03
2019-04-05T08:04:35.678Z,99994.85
2019-04-05T08:07:06.940Z,99989.91
2019-04-05T08:09:38.662Z,99992.81
2019-04-05T08:12:09.062Z,99999.51
2019-04-05T08:14:40.924Z,99997.49
2019-04-05T08:17:10.775Z,99997.89
2019-04-05T08:19:41.075Z,99988.95
2019-04-05T08:22:11.040Z,99989.48
2019-04-05T08:24:41.057Z,99984.95
2019-04-05T08:27:10.933Z,99989.70
2019-04-05T08:29:40.783Z,99982.64
2019-04-05T08:32:14.920Z,99983.66
2019-04-05T08:34:42.107Z,99979.44
2019-04-05T08:37:11.906Z,99980.33
2019-04-05T08:39:41.878Z,99986.20
2019-04-05T08:42:11.786Z,99986.11
2019-04-05T08:44:41.622Z,99987.55
2019-04-05T08:47:11.593Z,99990.48
2019-04-05T08:49:41.410Z,99988.34
2019-04-05T08:52:11.333Z,99993.63
2019-04-05T08:54:41.355Z,99991.64
2019-04-05T08:57:11.455Z,99997.58
2019-04-05T08:59:41.411Z,99993.13
2019-04-05T09:02:11.327Z,100002.27
2019-04-05T09:04:41.215Z,100001.05
2019-04-05T09:07:11.131Z,99996.09
2019-04-05T09:09:40.975Z,100001.47
2019-04-05T09:12:10.858Z,99997.23
2019-04-05T09:14:40.662Z,100003.70
2019-04-05T09:17:10.557Z,100003.30
2019-04-05T09:19:40.421Z,100010.37
2019-04-05T09:22:10.277Z,100009.81
2019-04-05T09:24:40.178Z,100005.20
2019-04-05T09:27:10.140Z,99996.67
2019-04-05T09:29:40.131Z,100003.13
2019-04-05T09:32:09.932Z,100003.75
2019-04-05T09:34:39.779Z,100006.55
2019-04-05T09:37:09.610Z,100002.02
2019-04-05T09:39:39.399Z,100004.02
2019-04-05T09:42:09.431Z,99996.52
2019-04-05T09:44:39.319Z,99997.95
2019-04-05T09:47:09.174Z,99999.80
2019-04-05T09:49:39.148Z,100001.74
2019-04-05T09:52:08.935Z,99999.64
2019-04-05T09:54:39.094Z,99996.64
2019-04-05T09:57:09.951Z,99997.58
2019-04-05T09:59:39.826Z,100000.64
2019-04-05T10:02:09.885Z,100000.59
2019-04-05T10:04:39.682Z,100005.73
2019-04-05T10:07:09.609Z,100011.05
2019-04-05T10:09:39.798Z,100012.60
2019-04-05T10:12:09.717Z,100013.97
2019-04-05T10:14:39.813Z,100008.47
2019-04-05T10:17:10.245Z,100009.13
2019-04-05T10:19:49.816Z,100008.88
2019-04-05T10:22:11.638Z,100008.61
2019-04-05T10:24:41.684Z,100013.70
2019-04-05T10:27:11.505Z,100015.50
2019-04-05T10:29:42.173Z,100016.75
2019-04-05T10:32:11.957Z,100007.97
2019-04-05T10:34:41.837Z,100019.21
2019-04-05T10:37:11.583Z,100019.80
2019-04-05T10:39:41.499Z,100012.98
2019-04-05T10:42:20.051Z,100012.33
2019-04-05T10:44:49.830Z,100011.01
2019-04-05T10:47:19.600Z,100007.97
2019-04-05T10:50:01.698Z,100010.23
2019-04-05T10:52:20.895Z,100005.75
2019-04-05T10:54:50.830Z,100010.97
2019-04-05T10:57:20.933Z,100007.48
2019-04-05T10:59:51.276Z,100009.87
2019-04-05T11:02:21.215Z,100008.53
2019-04-05T11:04:51.110Z,100011.29
2019-04-05T11:07:20.900Z,100014.29
2019-04-05T11:09:53.472Z,100020.73
2019-04-05T11:12:22.440Z,100016.97
2019-04-05T11:14:53.346Z,100026.78
2019-04-05T11:17:23.256Z,100024.88
2019-04-05T11:19:53.079Z,100026.54
2019-04-05T11:22:23.145Z,100030.55
2019-04-05T11:24:52.900Z,100028.08
2019-04-05T11:27:22.668Z,100024.95
2019-04-05T11:29:52.462Z,100027.84
2019-04-05T11:32:22.984Z,100023.95
2019-04-05T11:34:53.156Z,100036.52
2019-04-05T11:37:23.614Z,100038.39
2019-04-05T11:39:53.523Z,100039.16
2019-04-05T11:42:25.674Z,100044.39
2019-04-05T11:44:58.733Z,100044.66
2019-04-05T11:47:30.822Z,100041.27
2019-04-05T11:50:02.528Z,100041.55
2019-04-05T11:52:32.516Z,100038.42
2019-04-05T11:55:04.670Z,100043.21
2019-04-05T11:57:34.188Z,100039.19
2019-04-05T12:00:07.471Z,100038.95
2019-04-05T12:02:41.098Z,100045.36
2019-04-05T12:05:13.131Z,100047.02
2019-04-05T12:07:43.013Z,100045.20
2019-04-05T12:10:13.010Z,100055.27
2019-04-05T12:12:42.948Z,100052.05
2019-04-05T12:15:13.184Z,100047.51
2019-04-05T12:17:43.339Z,100049.41
2019-04-05T12:20:13.974Z,100054.56
2019-04-05T12:22:43.783Z,100048.92
2019-04-05T12:25:14.176Z,100052.78
2019-04-05T12:27:44.177Z,100049.90
2019-04-05T12:30:17.526Z,100044.13
2019-04-05T12:32:48.815Z,100044.13
2019-04-05T12:35:21.553Z,100050.05
2019-04-05T12:37:55.512Z,100049.28
2019-04-05T12:40:23.054Z,100049.41
2019-04-05T12:42:53.284Z,100044.74
2019-04-05T12:45:23.147Z,100014.56
2019-04-05T12:47:52.918Z,100040.87
2019-04-05T12:50:22.687Z,100045.02
2019-04-05T12:52:54.732Z,100040.72
2019-04-05T12:55:24.662Z,100040.73
2019-04-05T12:57:56.204Z,100042.48
2019-04-05T13:00:26.482Z,100040.58
2019-04-05T13:02:57.245Z,100040.70
2019-04-05T13:05:27.335Z,100041.22
2019-04-05T13:07:57.087Z,100034.19
2019-04-05T13:10:30.272Z,100041.34
2019-04-05T13:12:58.565Z,100036.83
2019-04-05T13:15:28.485Z,100040.23
2019-04-05T13:18:00.424Z,100041.86
2019-04-05T13:20:30.371Z,100039.59
2019-04-05T13:23:04.449Z,100039.86
2019-04-05T13:25:33.421Z,100048.40
2019-04-05T13:28:12.694Z,100039.95
2019-04-05T13:30:35.730Z,100038.30
2019-04-05T13:33:05.710Z,100031.80
2019-04-05T13:35:36.498Z,100026.64
2019-04-05T13:38:06.663Z,100026.39
2019-04-05T13:40:36.982Z,100021.11
2019-04-05T13:43:06.953Z,100021.36
2019-04-05T13:45:36.830Z,100030.66
2019-04-05T13:48:09.083Z,100028.29
2019-04-05T13:50:41.470Z,100024.52
2019-04-05T13:53:11.329Z,100023.50
2019-04-05T13:55:41.871Z,100023.89
2019-04-05T13:58:12.078Z,100022.88
2019-04-05T14:00:42.023Z,100024.64
2019-04-05T14:03:12.012Z,100028.55
2019-04-05T14:05:41.866Z,100023.91
2019-04-05T14:08:11.604Z,100022.12
2019-04-05T14:10:42.049Z,100020.88
2019-04-05T14:13:11.861Z,100014.70
2019-04-05T14:15:43.081Z,100012.82
2019-04-05T14:18:15.261Z,100015.83
2019-04-05T14:20:45.237Z,100012.80
2019-04-05T14:23:15.126Z,100019.73
2019-04-05T14:25:45.138Z,100018.35
2019-04-05T14:28:15.243Z,100020.88
2019-04-05T14:30:47.676Z,100018.11
2019-04-05T14:33:17.710Z,100020.61
2019-04-05T14:35:47.748Z,100022.12
2019-04-05T14:38:17.629Z,100019.88
2019-04-05T14:40:47.558Z,100019.87
2019-04-05T14:43:17.622Z,100019.73
2019-04-05T14:45:48.409Z,100013.81
2019-04-05T14:48:18.234Z,100025.42
2019-04-05T14:50:48.099Z,100020.74
2019-04-05T14:53:17.956Z,100026.27
2019-04-05T14:55:47.872Z,100024.77
2019-04-05T14:58:19.221Z,100024.77
2019-04-05T15:00:49.521Z,100029.19
2019-04-05T15:03:19.636Z,100024.53
2019-04-05T15:05:49.518Z,100021.62
2019-04-05T15:08:20.684Z,100022.75
2019-04-05T15:10:51.416Z,100021.62
2019-04-05T15:13:21.520Z,100023.87
2019-04-05T15:15:51.310Z,100024.24
2019-04-05T15:18:24.228Z,100021.38
2019-04-05T15:20:52.645Z,100022.89
2019-04-05T15:23:22.582Z,100028.66
2019-04-05T15:25:52.525Z,100017.95
2019-04-05T15:28:24.577Z,100020.84
2019-04-05T15:30:56.158Z,100015.20
2019-04-05T15:33:27.750Z,100018.05
2019-04-05T15:36:00.203Z,100022.08
2019-04-05T15:38:31.474Z,100024.10
2019-04-05T15:41:00.953Z,100028.12
2019-04-05T15:43:31.864Z,100033.64
2019-04-05T15:46:03.284Z,100038.02
2019-04-05T15:48:33.211Z,100035.75
2019-04-05T15:51:03.262Z,100035.09
2019-04-05T15:53:33.380Z,100033.36
2019-04-05T15:56:04.272Z,100027.96
2019-04-05T15:58:34.704Z,100024.95
2019-04-05T16:01:05.958Z,100037.61
2019-04-05T16:03:37.022Z,100039.88
2019-04-05T16:06:08.168Z,100034.61
2019-04-05T16:08:38.458Z,100040.49
2019-04-05T16:11:08.373Z,100042.77
2019-04-05T16:13:38.300Z,100040.13
2019-04-05T16:16:08.204Z,100038.74
2019-04-05T16:18:38.229Z,100043.65
2019-04-05T16:21:08.064Z,100041.74
2019-04-05T16:23:39.312Z,100045.64
2019-04-05T16:26:09.298Z,100047.63
2019-04-05T16:28:40.954Z,100045.11
2019-04-05T16:31:11.149Z,100045.31
2019-04-05T16:33:41.756Z,100052.36
2019-04-05T16:36:11.700Z,100055.36
2019-04-05T16:38:41.532Z,100060.64
2019-04-05T16:41:11.427Z,100056.12
2019-04-05T16:43:41.235Z,100058.12
2019-04-05T16:46:11.149Z,100061.16
2019-04-05T16:48:41.050Z,100061.52
2019-04-05T16:51:10.902Z,100055.44
2019-04-05T16:53:59.467Z,100059.25
2019-04-05T16:56:29.909Z,100059.48
2019-04-05T16:58:59.951Z,100058.83
2019-04-05T17:01:29.924Z,100058.34
2019-04-05T17:03:59.818Z,100064.03
2019-04-05T17:06:29.766Z,100058.00
2019-04-05T17:08:59.579Z,100056.42
2019-04-05T17:11:29.681Z,100059.22
2019-04-05T17:13:59.710Z,100059.73
2019-04-05T17:16:29.674Z,100056.97
2019-04-05T17:18:59.785Z,100064.63
2019-04-05T17:21:29.701Z,100060.87
2019-04-05T17:24:01.023Z,100055.13
2019-04-05T17:26:31.446Z,100060.41
2019-04-05T17:29:02.392Z,100057.27
2019-04-05T17:31:32.199Z,100051.58
2019-04-05T17:34:02.207Z,100057.34
2019-04-05T17:36:32.123Z,100065.64
2019-04-05T17:39:05.018Z,100059.91
2019-04-05T17:41:34.842Z,100060.72
2019-04-05T17:44:04.864Z,100068.80
2019-04-05T17:46:34.774Z,100061.98
2019-04-05T17:49:04.916Z,100071.08
2019-04-05T17:51:34.668Z,100071.02
2019-04-05T17:54:04.907Z,100073.54
2019-04-05T17:56:35.825Z,100069.41
2019-04-05T17:59:05.992Z,100079.45
2019-04-05T18:01:38.664Z,100082.82
2019-04-05T18:04:08.122Z,100085.54
2019-04-05T18:06:38.296Z,100084.08
2019-04-05T18:09:08.389Z,100090.65
2019-04-05T18:11:38.477Z,100089.05
2019-04-05T18:14:08.440Z,100092.53
2019-04-05T18:16:38.363Z,100083.24
2019-04-05T18:19:08.395Z,100087.80
2019-04-05T18:21:38.419Z,100087.28
2019-04-05T18:24:09.565Z,100090.55
2019-04-05T18:26:39.441Z,100085.70
2019-04-05T18:29:09.454Z,100098.03
2019-04-05T18:31:39.572Z,100092.77
2019-04-05T18:34:09.466Z,100096.34
2019-04-05T18:36:39.582Z,100103.61
2019-04-05T18:39:10.094Z,100102.94
2019-04-05T18:41:40.175Z,100113.01
2019-04-05T18:44:10.427Z,100120.07
2019-04-05T18:46:40.336Z,100129.89
2019-04-05T18:49:11.020Z,100120.48
2019-04-05T18:51:42.153Z,100124.63
2019-04-05T18:54:12.005Z,100124.95
2019-04-05T18:56:41.996Z,100132.02
2019-04-05T18:59:12.126Z,100127.34
2019-04-05T19:01:42.526Z,100136.06
2019-04-05T19:04:13.064Z,100131.80
2019-04-05T19:06:42.980Z,100130.28
2019-04-05T19:09:12.799Z,100133.77
2019-04-05T19:11:42.898Z,100139.27
2019-04-05T19:14:13.099Z,100142.42
2019-04-05T19:16:43.074Z,100140.75
2019-04-05T19:19:13.011Z,100137.23
2019-04-05T19:21:43.093Z,100134.90
2019-04-05T19:24:12.884Z,100144.26
2019-04-05T19:26:42.739Z,100139.41
2019-04-05T19:29:12.789Z,100146.72
2019-04-05T19:49:24.447Z,100128.00
2019-04-05T19:51:54.303Z,100128.41
2019-04-05T19:54:26.407Z,100127.28
2019-04-05T19:56:55.855Z,100126.14
2019-04-05T19:59:25.810Z,100079.16
2019-04-05T20:01:55.775Z,100126.17
2019-04-05T20:04:25.791Z,100134.81
2019-04-05T20:06:58.709Z,100103.48
2019-04-05T20:09:27.716Z,100128.26
2019-04-05T20:11:57.559Z,100128.83
2019-04-05T20:14:27.361Z,100124.53
2019-04-05T20:16:57.330Z,100123.98
2019-04-05T20:19:28.188Z,100119.42
2019-04-05T20:21:58.265Z,100116.78
2019-04-05T20:24:28.201Z,100117.24
2019-04-05T20:26:58.479Z,100118.30
2019-04-05T20:29:28.385Z,100120.44
2019-04-05T20:31:58.410Z,100125.88
2019-04-05T20:34:28.331Z,100122.98
2019-04-05T20:36:59.302Z,100123.14
2019-04-05T20:39:29.373Z,100125.47
2019-04-05T20:41:59.168Z,100120.78
2019-04-05T20:44:29.011Z,100127.77
2019-04-05T20:46:58.796Z,100095.98
2019-04-05T20:49:29.132Z,100140.97
2019-04-05T20:51:58.992Z,100135.97
2019-04-05T20:54:29.216Z,100141.60
2019-04-05T20:56:59.105Z,100150.60
2019-04-05T20:59:29.192Z,100149.21
2019-04-05T21:01:59.031Z,100144.51
2019-04-05T21:04:28.868Z,100155.63
2019-04-05T21:06:58.788Z,100146.70
2019-04-05T21:09:28.681Z,100150.33
2019-04-05T21:11:59.031Z,100145.63
2019-04-05T21:14:29.028Z,100150.19
2019-04-05T21:16:58.853Z,100149.34
2019-04-05T21:19:31.868Z,100152.30
2019-04-05T21:22:01.655Z,100145.75
2019-04-05T21:24:36.399Z,100147.14
2019-04-05T21:27:03.353Z,100148.04
2019-04-05T21:29:33.358Z,100156.45
2019-04-05T21:32:08.122Z,100154.44
2019-04-05T21:34:38.030Z,100162.49
2019-04-05T21:37:07.896Z,100161.83
2019-04-05T21:39:37.804Z,100157.78
2019-04-05T21:42:07.908Z,100154.44
2019-04-05T21:44:38.331Z,100168.67
2019-04-05T21:47:08.837Z,100174.00
2019-04-05T21:49:39.779Z,100180.72
2019-04-05T21:52:10.037Z,100183.64
2019-04-05T21:54:47.440Z,100184.09
2019-04-05T21:57:12.103Z,100183.59
2019-04-05T21:59:41.851Z,100177.46
2019-04-05T22:02:11.839Z,100182.97
2019-04-05T22:04:41.745Z,100181.36
2019-04-05T22:07:12.488Z,100167.84
2019-04-05T22:09:42.669Z,100173.53
2019-04-05T22:12:12.514Z,100176.34
2019-04-05T22:14:44.973Z,100175.86
2019-04-05T22:17:15.477Z,100176.03
2019-04-05T22:19:49.701Z,100169.59
2019-04-05T22:22:20.059Z,100179.09
2019-04-05T22:24:58.822Z,100175.33
2019-04-05T22:27:22.272Z,100174.16
2019-04-05T22:29:52.435Z,100167.13
2019-04-05T22:32:22.502Z,100180.79
2019-04-05T22:34:52.636Z,100177.92
2019-04-05T22:37:23.057Z,100174.88
2019-04-05T22:39:53.397Z,100169.86
2019-04-05T22:42:23.201Z,100168.47
2019-04-05T22:44:53.107Z,100157.94
2019-04-05T22:47:22.914Z,100155.33
2019-04-05T22:49:52.717Z,100145.50
2019-04-05T22:52:22.558Z,100154.22
2019-04-05T22:54:53.390Z,100150.04
2019-04-05T22:57:23.344Z,100151.46
2019-04-05T22:59:53.131Z,100149.12
2019-04-05T23:02:23.022Z,100148.00
2019-04-05T23:04:53.220Z,100150.66
2019-04-05T23:07:23.179Z,100147.86
2019-04-05T23:09:52.992Z,100144.63
2019-04-05T23:12:22.915Z,100144.85
2019-04-05T23:14:52.826Z,100156.73
2019-04-05T23:17:22.725Z,100153.06
2019-04-05T23:19:52.744Z,100156.60
2019-04-05T23:22:22.883Z,100161.63
2019-04-05T23:24:52.987Z,100165.42
2019-04-05T23:27:22.934Z,100172.23
2019-04-05T23:29:52.809Z,100170.44
2019-04-05T23:32:22.826Z,100171.43
2019-04-05T23:34:52.693Z,100170.41
2019-04-05T23:37:22.537Z,100171.84
2019-04-05T23:39:52.492Z,100167.78
2019-04-05T23:42:22.424Z,100184.30
2019-04-05T23:44:52.569Z,100183.94
2019-04-05T23:47:22.386Z,100183.45
2019-04-05T23:49:52.377Z,100176.81
2019-04-05T23:52:22.230Z,100180.25
2019-04-05T23:54:52.110Z,100175.90
2019-04-05T23:57:21.941Z,100180.16
2019-04-05T23:59:51.869Z,100176.33
